sensor_id;sensor_type;location;lat;lon;timestamp;P1;durP1;ratioP1;P2;durP2;ratioP2
58954;SDS011;45815;52.334;5.024;2023-07-09T00:01:56;13.48;;;8.38;;
58954;SDS011;45815;52.334;5.024;2023-07-09T00:04:21;11.93;;;7.75;;
58954;SDS011;45815;52.334;5.024;2023-07-09T00:06:47;13.30;;;8.02;;
58954;SDS011;45815;52.334;5.024;2023-07-09T00:09:13;12.80;;;7.93;;
58954;SDS011;45815;52.334;5.024;2023-07-09T00:11:41;13.93;;;7.90;;
58954;SDS011;45815;52.334;5.024;2023-07-09T00:14:08;11.93;;;7.75;;
58954;SDS011;45815;52.334;5.024;2023-07-09T00:16:38;14.63;;;8.60;;
58954;SDS011;45815;52.334;5.024;2023-07-09T00:19:09;13.13;;;7.90;;
58954;SDS011;45815;52.334;5.024;2023-07-09T00:21:38;12.68;;;7.60;;
58954;SDS011;45815;52.334;5.024;2023-07-09T00:24:06;11.05;;;7.20;;
58954;SDS011;45815;52.334;5.024;2023-07-09T00:26:32;14.00;;;8.48;;
58954;SDS011;45815;52.334;5.024;2023-07-09T00:28:58;14.15;;;7.80;;
58954;SDS011;45815;52.334;5.024;2023-07-09T00:31:24;12.38;;;7.28;;
58954;SDS011;45815;52.334;5.024;2023-07-09T00:33:52;13.02;;;7.72;;
58954;SDS011;45815;52.334;5.024;2023-07-09T00:36:27;11.18;;;7.20;;
58954;SDS011;45815;52.334;5.024;2023-07-09T00:38:55;13.77;;;7.60;;
58954;SDS011;45815;52.334;5.024;2023-07-09T00:41:34;11.95;;;7.07;;
58954;SDS011;45815;52.334;5.024;2023-07-09T00:44:35;11.52;;;6.85;;
58954;SDS011;45815;52.334;5.024;2023-07-09T00:49:33;20.00;;;7.95;;
58954;SDS011;45815;52.334;5.024;2023-07-09T00:52:03;12.45;;;7.47;;
58954;SDS011;45815;52.334;5.024;2023-07-09T00:54:44;13.80;;;7.90;;
58954;SDS011;45815;52.334;5.024;2023-07-09T00:57:15;14.40;;;7.40;;
58954;SDS011;45815;52.334;5.024;2023-07-09T00:59:48;14.60;;;7.88;;
58954;SDS011;45815;52.334;5.024;2023-07-09T01:02:18;11.73;;;7.30;;
58954;SDS011;45815;52.334;5.024;2023-07-09T01:04:48;11.05;;;6.95;;
58954;SDS011;45815;52.334;5.024;2023-07-09T01:07:19;10.70;;;7.35;;
58954;SDS011;45815;52.334;5.024;2023-07-09T01:09:47;12.18;;;7.32;;
58954;SDS011;45815;52.334;5.024;2023-07-09T01:12:13;11.02;;;6.63;;
58954;SDS011;45815;52.334;5.024;2023-07-09T01:14:41;17.02;;;7.40;;
58954;SDS011;45815;52.334;5.024;2023-07-09T01:17:07;12.70;;;7.05;;
58954;SDS011;45815;52.334;5.024;2023-07-09T01:19:39;11.40;;;6.50;;
58954;SDS011;45815;52.334;5.024;2023-07-09T01:22:14;14.02;;;7.00;;
58954;SDS011;45815;52.334;5.024;2023-07-09T01:30:01;13.43;;;7.10;;
58954;SDS011;45815;52.334;5.024;2023-07-09T01:32:31;13.20;;;7.38;;
58954;SDS011;45815;52.334;5.024;2023-07-09T01:34:59;14.30;;;7.65;;
58954;SDS011;45815;52.334;5.024;2023-07-09T01:37:30;11.07;;;6.80;;
58954;SDS011;45815;52.334;5.024;2023-07-09T01:39:57;10.40;;;6.60;;
58954;SDS011;45815;52.334;5.024;2023-07-09T01:42:24;11.23;;;6.93;;
58954;SDS011;45815;52.334;5.024;2023-07-09T01:44:51;13.18;;;7.03;;
58954;SDS011;45815;52.334;5.024;2023-07-09T01:47:18;13.77;;;7.25;;
58954;SDS011;45815;52.334;5.024;2023-07-09T01:49:44;13.48;;;6.85;;
58954;SDS011;45815;52.334;5.024;2023-07-09T01:52:14;10.93;;;6.63;;
58954;SDS011;45815;52.334;5.024;2023-07-09T01:54:41;12.63;;;7.38;;
58954;SDS011;45815;52.334;5.024;2023-07-09T01:57:21;10.20;;;6.43;;
58954;SDS011;45815;52.334;5.024;2023-07-09T01:59:53;11.68;;;7.10;;
58954;SDS011;45815;52.334;5.024;2023-07-09T02:02:22;12.25;;;7.00;;
58954;SDS011;45815;52.334;5.024;2023-07-09T02:04:48;12.30;;;7.10;;
58954;SDS011;45815;52.334;5.024;2023-07-09T02:07:17;11.95;;;6.88;;
58954;SDS011;45815;52.334;5.024;2023-07-09T02:09:43;12.95;;;8.77;;
58954;SDS011;45815;52.334;5.024;2023-07-09T02:12:09;12.00;;;6.90;;
58954;SDS011;45815;52.334;5.024;2023-07-09T02:14:38;13.60;;;7.63;;
58954;SDS011;45815;52.334;5.024;2023-07-09T02:17:04;10.57;;;6.63;;
58954;SDS011;45815;52.334;5.024;2023-07-09T02:19:30;11.93;;;6.95;;
58954;SDS011;45815;52.334;5.024;2023-07-09T02:21:56;14.02;;;7.75;;
58954;SDS011;45815;52.334;5.024;2023-07-09T02:24:22;14.13;;;8.30;;
58954;SDS011;45815;52.334;5.024;2023-07-09T02:26:50;13.85;;;7.53;;
58954;SDS011;45815;52.334;5.024;2023-07-09T02:29:16;13.38;;;7.78;;
58954;SDS011;45815;52.334;5.024;2023-07-09T02:31:43;11.32;;;7.57;;
58954;SDS011;45815;52.334;5.024;2023-07-09T02:34:08;14.85;;;8.18;;
58954;SDS011;45815;52.334;5.024;2023-07-09T02:36:34;13.15;;;8.15;;
58954;SDS011;45815;52.334;5.024;2023-07-09T02:38:59;15.07;;;8.85;;
58954;SDS011;45815;52.334;5.024;2023-07-09T02:41:25;14.50;;;7.80;;
58954;SDS011;45815;52.334;5.024;2023-07-09T02:43:50;14.57;;;8.63;;
58954;SDS011;45815;52.334;5.024;2023-07-09T02:46:16;13.65;;;7.80;;
58954;SDS011;45815;52.334;5.024;2023-07-09T02:48:41;12.02;;;8.45;;
58954;SDS011;45815;52.334;5.024;2023-07-09T02:51:08;15.05;;;8.18;;
58954;SDS011;45815;52.334;5.024;2023-07-09T02:53:33;12.32;;;7.55;;
58954;SDS011;45815;52.334;5.024;2023-07-09T02:55:59;14.68;;;8.73;;
58954;SDS011;45815;52.334;5.024;2023-07-09T02:58:27;14.63;;;8.50;;
58954;SDS011;45815;52.334;5.024;2023-07-09T03:00:53;15.15;;;8.85;;
58954;SDS011;45815;52.334;5.024;2023-07-09T03:03:19;12.68;;;8.25;;
58954;SDS011;45815;52.334;5.024;2023-07-09T03:05:45;15.30;;;8.45;;
58954;SDS011;45815;52.334;5.024;2023-07-09T03:08:11;13.20;;;8.35;;
58954;SDS011;45815;52.334;5.024;2023-07-09T03:10:38;14.10;;;8.25;;
58954;SDS011;45815;52.334;5.024;2023-07-09T03:13:03;15.38;;;9.27;;
58954;SDS011;45815;52.334;5.024;2023-07-09T03:15:30;15.65;;;8.68;;
58954;SDS011;45815;52.334;5.024;2023-07-09T03:17:56;13.35;;;9.25;;
58954;SDS011;45815;52.334;5.024;2023-07-09T03:20:21;17.40;;;9.98;;
58954;SDS011;45815;52.334;5.024;2023-07-09T03:22:47;14.15;;;9.20;;
58954;SDS011;45815;52.334;5.024;2023-07-09T03:25:12;14.07;;;9.23;;
58954;SDS011;45815;52.334;5.024;2023-07-09T03:27:38;15.38;;;9.57;;
58954;SDS011;45815;52.334;5.024;2023-07-09T03:30:04;12.65;;;8.18;;
58954;SDS011;45815;52.334;5.024;2023-07-09T03:32:30;14.25;;;8.02;;
58954;SDS011;45815;52.334;5.024;2023-07-09T03:34:56;12.45;;;8.23;;
58954;SDS011;45815;52.334;5.024;2023-07-09T03:37:21;13.35;;;7.90;;
58954;SDS011;45815;52.334;5.024;2023-07-09T03:39:46;12.00;;;7.65;;
58954;SDS011;45815;52.334;5.024;2023-07-09T03:42:12;14.15;;;8.43;;
58954;SDS011;45815;52.334;5.024;2023-07-09T03:44:37;16.50;;;9.13;;
58954;SDS011;45815;52.334;5.024;2023-07-09T03:47:03;14.57;;;8.20;;
58954;SDS011;45815;52.334;5.024;2023-07-09T03:49:29;13.02;;;8.73;;
58954;SDS011;45815;52.334;5.024;2023-07-09T03:51:54;13.27;;;8.55;;
58954;SDS011;45815;52.334;5.024;2023-07-09T03:54:20;11.52;;;7.75;;
58954;SDS011;45815;52.334;5.024;2023-07-09T03:56:45;15.35;;;8.75;;
58954;SDS011;45815;52.334;5.024;2023-07-09T03:59:11;12.38;;;7.85;;
58954;SDS011;45815;52.334;5.024;2023-07-09T04:01:36;14.93;;;8.50;;
58954;SDS011;45815;52.334;5.024;2023-07-09T04:04:02;14.98;;;8.48;;
58954;SDS011;45815;52.334;5.024;2023-07-09T04:06:28;12.05;;;7.78;;
58954;SDS011;45815;52.334;5.024;2023-07-09T04:08:54;13.05;;;8.32;;
58954;SDS011;45815;52.334;5.024;2023-07-09T04:11:19;11.90;;;7.88;;
58954;SDS011;45815;52.334;5.024;2023-07-09T04:13:44;16.15;;;8.98;;
58954;SDS011;45815;52.334;5.024;2023-07-09T04:16:10;16.98;;;9.40;;
58954;SDS011;45815;52.334;5.024;2023-07-09T04:18:36;14.40;;;9.43;;
58954;SDS011;45815;52.334;5.024;2023-07-09T04:21:01;20.63;;;15.02;;
58954;SDS011;45815;52.334;5.024;2023-07-09T04:23:32;15.05;;;9.20;;
58954;SDS011;45815;52.334;5.024;2023-07-09T04:25:58;16.17;;;9.93;;
58954;SDS011;45815;52.334;5.024;2023-07-09T04:28:23;14.88;;;9.05;;
58954;SDS011;45815;52.334;5.024;2023-07-09T04:30:50;14.68;;;9.50;;
58954;SDS011;45815;52.334;5.024;2023-07-09T04:33:16;14.75;;;9.15;;
58954;SDS011;45815;52.334;5.024;2023-07-09T04:35:44;16.35;;;9.18;;
58954;SDS011;45815;52.334;5.024;2023-07-09T04:38:11;13.35;;;8.90;;
58954;SDS011;45815;52.334;5.024;2023-07-09T04:40:37;19.15;;;11.93;;
58954;SDS011;45815;52.334;5.024;2023-07-09T04:43:02;14.27;;;9.05;;
58954;SDS011;45815;52.334;5.024;2023-07-09T04:45:28;15.70;;;9.32;;
58954;SDS011;45815;52.334;5.024;2023-07-09T04:47:53;16.50;;;10.82;;
58954;SDS011;45815;52.334;5.024;2023-07-09T04:50:18;14.57;;;9.20;;
58954;SDS011;45815;52.334;5.024;2023-07-09T04:52:44;15.20;;;8.88;;
58954;SDS011;45815;52.334;5.024;2023-07-09T04:55:09;13.93;;;10.20;;
58954;SDS011;45815;52.334;5.024;2023-07-09T04:57:35;12.75;;;8.02;;
58954;SDS011;45815;52.334;5.024;2023-07-09T05:00:02;14.82;;;8.70;;
58954;SDS011;45815;52.334;5.024;2023-07-09T05:02:30;15.85;;;9.15;;
58954;SDS011;45815;52.334;5.024;2023-07-09T05:04:56;15.45;;;9.15;;
58954;SDS011;45815;52.334;5.024;2023-07-09T05:07:21;12.38;;;8.15;;
58954;SDS011;45815;52.334;5.024;2023-07-09T05:09:47;12.77;;;8.63;;
58954;SDS011;45815;52.334;5.024;2023-07-09T05:12:12;14.80;;;7.80;;
58954;SDS011;45815;52.334;5.024;2023-07-09T05:14:39;12.20;;;8.20;;
58954;SDS011;45815;52.334;5.024;2023-07-09T05:17:05;12.50;;;7.57;;
58954;SDS011;45815;52.334;5.024;2023-07-09T05:19:31;12.93;;;8.10;;
58954;SDS011;45815;52.334;5.024;2023-07-09T05:21:56;13.60;;;7.63;;
58954;SDS011;45815;52.334;5.024;2023-07-09T05:24:22;15.63;;;8.50;;
58954;SDS011;45815;52.334;5.024;2023-07-09T05:26:47;12.63;;;8.20;;
58954;SDS011;45815;52.334;5.024;2023-07-09T05:29:13;13.20;;;8.55;;
58954;SDS011;45815;52.334;5.024;2023-07-09T05:31:38;15.18;;;8.40;;
58954;SDS011;45815;52.334;5.024;2023-07-09T05:34:04;14.95;;;8.52;;
58954;SDS011;45815;52.334;5.024;2023-07-09T05:36:30;13.65;;;9.63;;
58954;SDS011;45815;52.334;5.024;2023-07-09T05:38:55;14.07;;;8.35;;
58954;SDS011;45815;52.334;5.024;2023-07-09T05:41:21;16.00;;;10.20;;
58954;SDS011;45815;52.334;5.024;2023-07-09T05:43:48;35.42;;;25.58;;
58954;SDS011;45815;52.334;5.024;2023-07-09T05:46:15;30.45;;;24.33;;
58954;SDS011;45815;52.334;5.024;2023-07-09T05:48:40;30.58;;;23.48;;
58954;SDS011;45815;52.334;5.024;2023-07-09T05:51:06;40.67;;;31.50;;
58954;SDS011;45815;52.334;5.024;2023-07-09T05:53:32;32.05;;;25.95;;
58954;SDS011;45815;52.334;5.024;2023-07-09T05:55:58;20.70;;;14.55;;
58954;SDS011;45815;52.334;5.024;2023-07-09T05:58:24;24.08;;;16.02;;
58954;SDS011;45815;52.334;5.024;2023-07-09T06:00:53;20.85;;;12.77;;
58954;SDS011;45815;52.334;5.024;2023-07-09T06:03:20;18.05;;;12.88;;
58954;SDS011;45815;52.334;5.024;2023-07-09T06:05:50;17.08;;;12.15;;
58954;SDS011;45815;52.334;5.024;2023-07-09T06:08:16;15.68;;;10.90;;
58954;SDS011;45815;52.334;5.024;2023-07-09T06:10:56;16.08;;;11.13;;
58954;SDS011;45815;52.334;5.024;2023-07-09T06:13:23;13.43;;;9.73;;
58954;SDS011;45815;52.334;5.024;2023-07-09T06:15:50;14.30;;;10.40;;
58954;SDS011;45815;52.334;5.024;2023-07-09T06:18:18;15.93;;;10.15;;
58954;SDS011;45815;52.334;5.024;2023-07-09T06:20:51;17.02;;;9.65;;
58954;SDS011;45815;52.334;5.024;2023-07-09T06:23:19;15.93;;;10.00;;
58954;SDS011;45815;52.334;5.024;2023-07-09T06:25:45;17.67;;;11.45;;
58954;SDS011;45815;52.334;5.024;2023-07-09T06:28:17;23.70;;;12.65;;
58954;SDS011;45815;52.334;5.024;2023-07-09T06:30:44;18.30;;;11.63;;
58954;SDS011;45815;52.334;5.024;2023-07-09T06:33:10;14.82;;;9.68;;
58954;SDS011;45815;52.334;5.024;2023-07-09T06:35:37;13.02;;;9.23;;
58954;SDS011;45815;52.334;5.024;2023-07-09T06:38:03;12.15;;;7.80;;
58954;SDS011;45815;52.334;5.024;2023-07-09T06:40:28;22.48;;;10.70;;
58954;SDS011;45815;52.334;5.024;2023-07-09T06:42:54;13.32;;;8.45;;
58954;SDS011;45815;52.334;5.024;2023-07-09T06:45:24;16.08;;;11.00;;
58954;SDS011;45815;52.334;5.024;2023-07-09T06:47:50;16.70;;;10.23;;
58954;SDS011;45815;52.334;5.024;2023-07-09T06:50:15;14.77;;;11.05;;
58954;SDS011;45815;52.334;5.024;2023-07-09T06:52:41;16.45;;;11.25;;
58954;SDS011;45815;52.334;5.024;2023-07-09T06:55:12;17.90;;;12.55;;
58954;SDS011;45815;52.334;5.024;2023-07-09T06:57:38;16.85;;;12.82;;
58954;SDS011;45815;52.334;5.024;2023-07-09T07:00:03;19.20;;;13.50;;
58954;SDS011;45815;52.334;5.024;2023-07-09T07:02:29;18.02;;;12.73;;
58954;SDS011;45815;52.334;5.024;2023-07-09T07:04:55;19.98;;;11.90;;
58954;SDS011;45815;52.334;5.024;2023-07-09T07:07:20;17.50;;;11.45;;
58954;SDS011;45815;52.334;5.024;2023-07-09T07:09:46;18.58;;;12.50;;
58954;SDS011;45815;52.334;5.024;2023-07-09T07:12:19;24.35;;;15.60;;
58954;SDS011;45815;52.334;5.024;2023-07-09T07:14:52;15.27;;;10.93;;
58954;SDS011;45815;52.334;5.024;2023-07-09T07:17:18;19.02;;;13.43;;
58954;SDS011;45815;52.334;5.024;2023-07-09T07:19:44;21.88;;;13.98;;
58954;SDS011;45815;52.334;5.024;2023-07-09T07:22:10;22.05;;;16.10;;
58954;SDS011;45815;52.334;5.024;2023-07-09T07:24:38;24.05;;;17.45;;
58954;SDS011;45815;52.334;5.024;2023-07-09T07:27:04;23.27;;;18.10;;
58954;SDS011;45815;52.334;5.024;2023-07-09T07:29:30;23.40;;;19.05;;
58954;SDS011;45815;52.334;5.024;2023-07-09T07:31:55;32.67;;;24.35;;
58954;SDS011;45815;52.334;5.024;2023-07-09T07:34:21;30.05;;;23.17;;
58954;SDS011;45815;52.334;5.024;2023-07-09T07:36:47;25.92;;;19.02;;
58954;SDS011;45815;52.334;5.024;2023-07-09T07:39:14;24.73;;;18.50;;
58954;SDS011;45815;52.334;5.024;2023-07-09T07:41:40;25.30;;;17.85;;
58954;SDS011;45815;52.334;5.024;2023-07-09T07:44:05;24.33;;;17.15;;
58954;SDS011;45815;52.334;5.024;2023-07-09T07:46:32;26.20;;;18.02;;
58954;SDS011;45815;52.334;5.024;2023-07-09T07:48:59;24.42;;;13.75;;
58954;SDS011;45815;52.334;5.024;2023-07-09T07:51:25;20.48;;;14.50;;
58954;SDS011;45815;52.334;5.024;2023-07-09T07:53:53;18.95;;;11.70;;
58954;SDS011;45815;52.334;5.024;2023-07-09T07:56:19;15.90;;;11.50;;
58954;SDS011;45815;52.334;5.024;2023-07-09T07:58:44;15.63;;;10.73;;
58954;SDS011;45815;52.334;5.024;2023-07-09T08:01:10;16.08;;;10.15;;
58954;SDS011;45815;52.334;5.024;2023-07-09T08:03:35;14.35;;;10.10;;
58954;SDS011;45815;52.334;5.024;2023-07-09T08:06:01;14.52;;;10.20;;
58954;SDS011;45815;52.334;5.024;2023-07-09T08:08:26;12.50;;;7.80;;
58954;SDS011;45815;52.334;5.024;2023-07-09T08:11:01;11.90;;;8.95;;
58954;SDS011;45815;52.334;5.024;2023-07-09T08:13:35;14.32;;;8.48;;
58954;SDS011;45815;52.334;5.024;2023-07-09T08:16:01;11.80;;;7.80;;
58954;SDS011;45815;52.334;5.024;2023-07-09T08:18:27;13.80;;;8.73;;
58954;SDS011;45815;52.334;5.024;2023-07-09T08:20:53;16.27;;;10.50;;
58954;SDS011;45815;52.334;5.024;2023-07-09T08:23:18;14.02;;;10.38;;
58954;SDS011;45815;52.334;5.024;2023-07-09T08:25:44;15.70;;;10.68;;
58954;SDS011;45815;52.334;5.024;2023-07-09T08:28:17;14.63;;;11.10;;
58954;SDS011;45815;52.334;5.024;2023-07-09T08:30:42;14.82;;;9.32;;
58954;SDS011;45815;52.334;5.024;2023-07-09T08:33:07;18.70;;;13.25;;
58954;SDS011;45815;52.334;5.024;2023-07-09T08:35:33;17.52;;;13.02;;
58954;SDS011;45815;52.334;5.024;2023-07-09T08:37:58;18.85;;;14.75;;
58954;SDS011;45815;52.334;5.024;2023-07-09T08:40:24;20.20;;;14.90;;
58954;SDS011;45815;52.334;5.024;2023-07-09T08:42:50;18.50;;;12.43;;
58954;SDS011;45815;52.334;5.024;2023-07-09T08:48:18;16.77;;;11.00;;
58954;SDS011;45815;52.334;5.024;2023-07-09T08:50:47;14.18;;;8.95;;
58954;SDS011;45815;52.334;5.024;2023-07-09T08:53:21;14.40;;;10.13;;
58954;SDS011;45815;52.334;5.024;2023-07-09T08:55:54;12.80;;;7.93;;
58954;SDS011;45815;52.334;5.024;2023-07-09T08:58:25;14.07;;;9.15;;
58954;SDS011;45815;52.334;5.024;2023-07-09T09:00:56;17.73;;;13.50;;
58954;SDS011;45815;52.334;5.024;2023-07-09T09:03:30;13.25;;;9.95;;
58954;SDS011;45815;52.334;5.024;2023-07-09T09:05:57;12.90;;;10.20;;
58954;SDS011;45815;52.334;5.024;2023-07-09T09:08:27;15.32;;;11.25;;
58954;SDS011;45815;52.334;5.024;2023-07-09T09:13:43;17.02;;;10.00;;
58954;SDS011;45815;52.334;5.024;2023-07-09T09:16:24;16.75;;;9.80;;
58954;SDS011;45815;52.334;5.024;2023-07-09T09:18:55;11.20;;;7.13;;
58954;SDS011;45815;52.334;5.024;2023-07-09T09:21:25;13.13;;;8.60;;
58954;SDS011;45815;52.334;5.024;2023-07-09T09:23:57;11.88;;;8.00;;
58954;SDS011;45815;52.334;5.024;2023-07-09T09:28:59;12.65;;;7.97;;
58954;SDS011;45815;52.334;5.024;2023-07-09T09:31:28;13.80;;;7.13;;
58954;SDS011;45815;52.334;5.024;2023-07-09T09:33:55;14.43;;;8.40;;
58954;SDS011;45815;52.334;5.024;2023-07-09T09:36:24;11.35;;;7.38;;
58954;SDS011;45815;52.334;5.024;2023-07-09T09:38:54;11.73;;;7.70;;
58954;SDS011;45815;52.334;5.024;2023-07-09T09:41:21;13.40;;;7.35;;
58954;SDS011;45815;52.334;5.024;2023-07-09T09:43:50;15.40;;;8.80;;
58954;SDS011;45815;52.334;5.024;2023-07-09T09:46:19;10.43;;;7.72;;
58954;SDS011;45815;52.334;5.024;2023-07-09T09:48:48;13.80;;;9.93;;
58954;SDS011;45815;52.334;5.024;2023-07-09T09:51:15;13.88;;;9.02;;
58954;SDS011;45815;52.334;5.024;2023-07-09T09:53:50;12.02;;;8.85;;
58954;SDS011;45815;52.334;5.024;2023-07-09T09:56:19;11.73;;;8.23;;
58954;SDS011;45815;52.334;5.024;2023-07-09T09:58:53;14.10;;;8.93;;
58954;SDS011;45815;52.334;5.024;2023-07-09T10:01:27;11.10;;;7.57;;
58954;SDS011;45815;52.334;5.024;2023-07-09T10:03:57;15.20;;;11.05;;
58954;SDS011;45815;52.334;5.024;2023-07-09T10:06:38;16.95;;;11.40;;
58954;SDS011;45815;52.334;5.024;2023-07-09T10:09:14;14.88;;;10.25;;
58954;SDS011;45815;52.334;5.024;2023-07-09T10:12:04;17.95;;;13.75;;
58954;SDS011;45815;52.334;5.024;2023-07-09T10:17:39;21.05;;;15.88;;
58954;SDS011;45815;52.334;5.024;2023-07-09T10:22:40;18.10;;;11.82;;
58954;SDS011;45815;52.334;5.024;2023-07-09T10:39:03;17.15;;;12.27;;
58954;SDS011;45815;52.334;5.024;2023-07-09T10:41:34;18.17;;;13.00;;
58954;SDS011;45815;52.334;5.024;2023-07-09T10:46:31;18.75;;;13.70;;
58954;SDS011;45815;52.334;5.024;2023-07-09T10:48:59;17.33;;;11.80;;
58954;SDS011;45815;52.334;5.024;2023-07-09T10:53:58;16.17;;;10.75;;
58954;SDS011;45815;52.334;5.024;2023-07-09T10:56:29;14.05;;;9.75;;
58954;SDS011;45815;52.334;5.024;2023-07-09T11:01:42;12.13;;;8.90;;
58954;SDS011;45815;52.334;5.024;2023-07-09T11:07:14;11.48;;;7.68;;
58954;SDS011;45815;52.334;5.024;2023-07-09T11:09:46;8.65;;;5.65;;
58954;SDS011;45815;52.334;5.024;2023-07-09T11:12:51;12.18;;;6.03;;
58954;SDS011;45815;52.334;5.024;2023-07-09T11:15:13;18.65;;;7.28;;
58954;SDS011;45815;52.334;5.024;2023-07-09T11:17:44;17.70;;;8.73;;
58954;SDS011;45815;52.334;5.024;2023-07-09T11:20:17;16.73;;;9.10;;
58954;SDS011;45815;52.334;5.024;2023-07-09T11:22:53;12.02;;;7.88;;
58954;SDS011;45815;52.334;5.024;2023-07-09T11:25:27;11.73;;;6.78;;
58954;SDS011;45815;52.334;5.024;2023-07-09T11:28:16;10.20;;;6.28;;
58954;SDS011;45815;52.334;5.024;2023-07-09T11:30:54;13.00;;;6.75;;
58954;SDS011;45815;52.334;5.024;2023-07-09T11:33:20;13.63;;;7.25;;
58954;SDS011;45815;52.334;5.024;2023-07-09T11:35:54;9.73;;;5.60;;
58954;SDS011;45815;52.334;5.024;2023-07-09T11:38:41;10.30;;;5.90;;
58954;SDS011;45815;52.334;5.024;2023-07-09T11:41:33;9.35;;;5.50;;
58954;SDS011;45815;52.334;5.024;2023-07-09T11:44:17;10.40;;;5.70;;
58954;SDS011;45815;52.334;5.024;2023-07-09T11:46:54;8.52;;;5.60;;
58954;SDS011;45815;52.334;5.024;2023-07-09T11:49:23;12.43;;;5.85;;
58954;SDS011;45815;52.334;5.024;2023-07-09T11:51:53;12.32;;;5.90;;
58954;SDS011;45815;52.334;5.024;2023-07-09T11:54:24;11.02;;;7.43;;
58954;SDS011;45815;52.334;5.024;2023-07-09T11:56:54;10.88;;;6.72;;
58954;SDS011;45815;52.334;5.024;2023-07-09T11:59:24;11.07;;;6.65;;
58954;SDS011;45815;52.334;5.024;2023-07-09T12:01:50;10.70;;;6.90;;
58954;SDS011;45815;52.334;5.024;2023-07-09T12:04:19;11.95;;;6.15;;
58954;SDS011;45815;52.334;5.024;2023-07-09T12:06:47;11.40;;;6.28;;
58954;SDS011;45815;52.334;5.024;2023-07-09T12:09:16;13.25;;;6.90;;
58954;SDS011;45815;52.334;5.024;2023-07-09T12:11:45;10.70;;;5.93;;
58954;SDS011;45815;52.334;5.024;2023-07-09T12:14:18;10.07;;;5.28;;
58954;SDS011;45815;52.334;5.024;2023-07-09T12:16:47;8.82;;;4.22;;
58954;SDS011;45815;52.334;5.024;2023-07-09T12:19:16;6.88;;;4.40;;
58954;SDS011;45815;52.334;5.024;2023-07-09T12:21:48;7.90;;;4.38;;
58954;SDS011;45815;52.334;5.024;2023-07-09T12:24:20;8.55;;;4.85;;
58954;SDS011;45815;52.334;5.024;2023-07-09T12:26:52;8.85;;;4.47;;
58954;SDS011;45815;52.334;5.024;2023-07-09T12:29:18;8.77;;;3.90;;
58954;SDS011;45815;52.334;5.024;2023-07-09T12:31:43;9.07;;;4.22;;
58954;SDS011;45815;52.334;5.024;2023-07-09T12:34:10;7.43;;;4.20;;
58954;SDS011;45815;52.334;5.024;2023-07-09T12:36:39;7.37;;;3.93;;
58954;SDS011;45815;52.334;5.024;2023-07-09T12:39:09;9.02;;;4.70;;
58954;SDS011;45815;52.334;5.024;2023-07-09T12:41:38;9.68;;;4.53;;
58954;SDS011;45815;52.334;5.024;2023-07-09T12:44:18;9.02;;;4.55;;
58954;SDS011;45815;52.334;5.024;2023-07-09T12:46:46;9.13;;;4.65;;
58954;SDS011;45815;52.334;5.024;2023-07-09T12:51:44;9.43;;;4.43;;
58954;SDS011;45815;52.334;5.024;2023-07-09T12:54:13;7.13;;;3.95;;
58954;SDS011;45815;52.334;5.024;2023-07-09T12:56:40;7.43;;;4.18;;
58954;SDS011;45815;52.334;5.024;2023-07-09T12:59:16;6.88;;;4.22;;
58954;SDS011;45815;52.334;5.024;2023-07-09T13:01:54;8.45;;;3.83;;
58954;SDS011;45815;52.334;5.024;2023-07-09T13:04:28;6.35;;;3.35;;
58954;SDS011;45815;52.334;5.024;2023-07-09T13:06:55;8.38;;;3.67;;
58954;SDS011;45815;52.334;5.024;2023-07-09T13:09:25;10.05;;;3.30;;
58954;SDS011;45815;52.334;5.024;2023-07-09T13:11:51;7.25;;;2.88;;
58954;SDS011;45815;52.334;5.024;2023-07-09T13:14:21;9.32;;;2.97;;
58954;SDS011;45815;52.334;5.024;2023-07-09T13:16:51;7.57;;;3.42;;
58954;SDS011;45815;52.334;5.024;2023-07-09T13:19:17;10.90;;;3.55;;
58954;SDS011;45815;52.334;5.024;2023-07-09T13:21:45;7.25;;;3.78;;
58954;SDS011;45815;52.334;5.024;2023-07-09T13:24:19;10.80;;;4.18;;
58954;SDS011;45815;52.334;5.024;2023-07-09T13:26:48;11.25;;;4.55;;
58954;SDS011;45815;52.334;5.024;2023-07-09T13:29:14;14.07;;;4.18;;
58954;SDS011;45815;52.334;5.024;2023-07-09T13:31:45;9.88;;;3.97;;
58954;SDS011;45815;52.334;5.024;2023-07-09T13:36:48;9.10;;;3.88;;
58954;SDS011;45815;52.334;5.024;2023-07-09T13:39:14;9.75;;;3.97;;
58954;SDS011;45815;52.334;5.024;2023-07-09T13:41:42;9.00;;;3.78;;
58954;SDS011;45815;52.334;5.024;2023-07-09T13:44:15;12.18;;;4.22;;
58954;SDS011;45815;52.334;5.024;2023-07-09T13:46:41;12.55;;;4.28;;
58954;SDS011;45815;52.334;5.024;2023-07-09T13:49:11;14.68;;;4.50;;
58954;SDS011;45815;52.334;5.024;2023-07-09T13:51:43;13.20;;;4.95;;
58954;SDS011;45815;52.334;5.024;2023-07-09T13:54:15;12.55;;;5.10;;
58954;SDS011;45815;52.334;5.024;2023-07-09T13:56:43;13.20;;;5.30;;
58954;SDS011;45815;52.334;5.024;2023-07-09T13:59:12;14.52;;;5.50;;
58954;SDS011;45815;52.334;5.024;2023-07-09T14:01:42;13.43;;;4.90;;
58954;SDS011;45815;52.334;5.024;2023-07-09T14:04:09;13.52;;;5.18;;
58954;SDS011;45815;52.334;5.024;2023-07-09T14:06:37;11.35;;;4.82;;
58954;SDS011;45815;52.334;5.024;2023-07-09T14:09:02;14.50;;;5.40;;
58954;SDS011;45815;52.334;5.024;2023-07-09T14:11:28;14.50;;;5.93;;
58954;SDS011;45815;52.334;5.024;2023-07-09T14:13:54;13.60;;;6.28;;
58954;SDS011;45815;52.334;5.024;2023-07-09T14:16:20;15.38;;;6.85;;
58954;SDS011;45815;52.334;5.024;2023-07-09T14:18:46;12.35;;;6.47;;
58954;SDS011;45815;52.334;5.024;2023-07-09T14:21:21;16.00;;;7.22;;
58954;SDS011;45815;52.334;5.024;2023-07-09T14:23:49;14.27;;;7.00;;
58954;SDS011;45815;52.334;5.024;2023-07-09T14:26:14;13.55;;;7.45;;
58954;SDS011;45815;52.334;5.024;2023-07-09T14:28:40;15.38;;;7.68;;
58954;SDS011;45815;52.334;5.024;2023-07-09T14:31:13;13.20;;;7.28;;
58954;SDS011;45815;52.334;5.024;2023-07-09T14:33:44;12.93;;;7.57;;
58954;SDS011;45815;52.334;5.024;2023-07-09T14:36:10;15.00;;;7.30;;
58954;SDS011;45815;52.334;5.024;2023-07-09T14:38:35;11.27;;;6.43;;
58954;SDS011;45815;52.334;5.024;2023-07-09T14:41:04;12.02;;;6.10;;
58954;SDS011;45815;52.334;5.024;2023-07-09T14:43:44;12.25;;;6.25;;
58954;SDS011;45815;52.334;5.024;2023-07-09T14:46:09;14.30;;;6.30;;
58954;SDS011;45815;52.334;5.024;2023-07-09T14:48:34;8.80;;;5.03;;
58954;SDS011;45815;52.334;5.024;2023-07-09T14:51:00;12.10;;;5.70;;
58954;SDS011;45815;52.334;5.024;2023-07-09T14:53:26;14.13;;;5.60;;
58954;SDS011;45815;52.334;5.024;2023-07-09T14:55:53;10.82;;;5.72;;
58954;SDS011;45815;52.334;5.024;2023-07-09T14:58:20;12.65;;;5.30;;
58954;SDS011;45815;52.334;5.024;2023-07-09T15:00:47;14.25;;;5.90;;
58954;SDS011;45815;52.334;5.024;2023-07-09T15:03:20;13.70;;;5.68;;
58954;SDS011;45815;52.334;5.024;2023-07-09T15:05:48;13.35;;;5.53;;
58954;SDS011;45815;52.334;5.024;2023-07-09T15:08:18;21.52;;;7.38;;
58954;SDS011;45815;52.334;5.024;2023-07-09T15:10:47;19.10;;;8.55;;
58954;SDS011;45815;52.334;5.024;2023-07-09T15:13:17;14.95;;;6.45;;
58954;SDS011;45815;52.334;5.024;2023-07-09T15:15:44;15.68;;;7.05;;
58954;SDS011;45815;52.334;5.024;2023-07-09T15:18:11;15.90;;;6.38;;
58954;SDS011;45815;52.334;5.024;2023-07-09T15:20:39;14.35;;;6.00;;
58954;SDS011;45815;52.334;5.024;2023-07-09T15:23:07;15.57;;;6.38;;
58954;SDS011;45815;52.334;5.024;2023-07-09T15:25:35;15.48;;;6.30;;
58954;SDS011;45815;52.334;5.024;2023-07-09T15:28:01;11.75;;;5.20;;
58954;SDS011;45815;52.334;5.024;2023-07-09T15:30:27;9.68;;;3.60;;
58954;SDS011;45815;52.334;5.024;2023-07-09T15:32:55;9.27;;;4.45;;